createdAt,value
2023-04-17T00:01:30.699Z,8.32
2023-04-17T00:03:58.174Z,8.28
2023-04-17T00:06:27.090Z,8.22
2023-04-17T00:08:54.044Z,8.20
2023-04-17T00:11:21.494Z,8.14
2023-04-17T00:13:48.088Z,8.13
2023-04-17T00:16:14.708Z,8.07
2023-04-17T00:18:41.318Z,8.06
2023-04-17T00:21:07.911Z,8.06
2023-04-17T00:23:34.494Z,8.02
2023-04-17T00:26:01.191Z,8.01
2023-04-17T00:28:27.764Z,8.00
2023-04-17T00:30:54.323Z,7.97
2023-04-17T00:33:20.979Z,7.93
2023-04-17T00:35:47.915Z,7.90
2023-04-17T00:38:14.475Z,7.87
2023-04-17T00:40:42.112Z,7.82
2023-04-17T00:43:08.703Z,7.78
2023-04-17T00:45:35.559Z,7.75
2023-04-17T00:48:03.670Z,7.72
2023-04-17T00:50:31.030Z,7.64
2023-04-17T00:52:58.521Z,7.57
2023-04-17T00:55:25.611Z,7.52
2023-04-17T00:57:52.293Z,7.45
2023-04-17T01:00:18.926Z,7.42
2023-04-17T01:02:45.880Z,7.41
2023-04-17T01:05:13.018Z,7.38
2023-04-17T01:07:41.298Z,7.38
2023-04-17T01:10:08.292Z,7.35
2023-04-17T01:12:34.961Z,7.30
2023-04-17T01:15:01.521Z,7.31
2023-04-17T01:17:28.398Z,7.27
2023-04-17T01:19:55.536Z,7.26
2023-04-17T01:22:22.180Z,7.24
2023-04-17T01:24:49.085Z,7.22
2023-04-17T01:27:15.706Z,7.23
2023-04-17T01:29:42.646Z,7.24
2023-04-17T01:32:09.269Z,7.22
2023-04-17T01:34:37.407Z,7.20
2023-04-17T01:37:04.459Z,7.19
2023-04-17T01:39:31.375Z,7.19
2023-04-17T01:41:57.981Z,7.18
2023-04-17T01:44:24.559Z,7.20
2023-04-17T01:46:51.308Z,7.20
2023-04-17T01:49:17.910Z,7.21
2023-04-17T01:51:44.472Z,7.20
2023-04-17T01:54:11.063Z,7.19
2023-04-17T01:56:37.692Z,7.18
2023-04-17T01:59:04.237Z,7.16
2023-04-17T02:01:31.208Z,7.13
2023-04-17T02:03:58.012Z,7.08
2023-04-17T02:06:25.546Z,7.05
2023-04-17T02:08:52.121Z,7.02
2023-04-17T02:11:18.674Z,7.00
2023-04-17T02:13:45.224Z,6.99
2023-04-17T02:16:12.707Z,6.96
2023-04-17T02:18:39.779Z,6.94
2023-04-17T02:21:06.640Z,6.92
2023-04-17T02:23:33.212Z,6.92
2023-04-17T02:25:59.751Z,6.92
2023-04-17T02:28:26.373Z,6.93
2023-04-17T02:30:53.034Z,6.92
2023-04-17T02:33:19.801Z,6.95
2023-04-17T02:35:46.625Z,6.96
2023-04-17T02:38:13.237Z,6.95
2023-04-17T02:40:39.942Z,7.00
2023-04-17T02:43:06.518Z,6.99
2023-04-17T02:45:33.120Z,7.01
2023-04-17T02:47:59.801Z,7.03
2023-04-17T02:50:26.437Z,7.05
2023-04-17T02:52:53.014Z,7.07
2023-04-17T02:55:19.709Z,7.09
2023-04-17T02:57:46.328Z,7.10
2023-04-17T03:00:14.162Z,7.14
2023-04-17T03:02:41.374Z,7.16
2023-04-17T03:05:08.323Z,7.20
2023-04-17T03:07:34.976Z,7.24
2023-04-17T03:10:01.649Z,7.28
2023-04-17T03:12:28.410Z,7.30
2023-04-17T03:14:54.991Z,7.32
2023-04-17T03:17:21.608Z,7.33
2023-04-17T03:19:48.146Z,7.34
2023-04-17T03:22:14.747Z,7.34
2023-04-17T03:24:41.742Z,7.36
2023-04-17T03:27:08.433Z,7.37
2023-04-17T03:29:35.162Z,7.37
2023-04-17T03:32:01.797Z,7.52
2023-04-17T03:34:29.143Z,7.60
2023-04-17T03:36:55.884Z,7.70
2023-04-17T03:39:22.485Z,7.90
2023-04-17T03:41:49.004Z,8.08
2023-04-17T03:44:17.385Z,8.23
2023-04-17T03:46:43.946Z,8.29
2023-04-17T03:49:10.727Z,8.34
2023-04-17T03:51:37.423Z,8.34
2023-04-17T03:54:04.119Z,8.47
2023-04-17T03:56:30.746Z,8.62
2023-04-17T03:58:57.298Z,8.76
2023-04-17T04:01:28.163Z,8.77
2023-04-17T04:03:55.279Z,8.79
2023-04-17T04:06:22.638Z,8.77
2023-04-17T04:08:49.568Z,8.76
2023-04-17T04:11:16.445Z,8.72
2023-04-17T04:13:43.076Z,8.64
2023-04-17T04:16:13.109Z,8.56
2023-04-17T04:18:39.808Z,8.55
2023-04-17T04:21:06.503Z,8.51
2023-04-17T04:23:33.836Z,8.49
2023-04-17T04:26:01.866Z,8.52
2023-04-17T04:28:30.296Z,8.59
2023-04-17T04:30:58.970Z,8.57
2023-04-17T04:33:27.711Z,8.59
2023-04-17T04:35:56.150Z,8.69
2023-04-17T04:38:29.955Z,8.87
2023-04-17T04:41:01.420Z,9.01
2023-04-17T04:43:32.208Z,9.06
2023-04-17T04:45:58.830Z,8.97
2023-04-17T04:48:25.376Z,8.93
2023-04-17T04:50:52.176Z,8.94
2023-04-17T04:53:18.831Z,9.17
2023-04-17T04:55:45.587Z,9.35
2023-04-17T04:58:12.239Z,9.46
2023-04-17T05:00:38.957Z,9.51
2023-04-17T05:03:06.606Z,9.49
2023-04-17T05:05:33.414Z,9.58
2023-04-17T05:07:59.950Z,9.58
2023-04-17T05:10:26.592Z,9.51
2023-04-17T05:12:53.122Z,9.47
2023-04-17T05:15:19.679Z,9.52
2023-04-17T05:17:46.704Z,9.66
2023-04-17T05:20:14.969Z,9.78
2023-04-17T05:22:41.515Z,9.91
2023-04-17T05:25:08.588Z,9.99
2023-04-17T05:27:35.114Z,10.02
2023-04-17T05:30:01.782Z,10.02
2023-04-17T05:32:31.367Z,9.98
2023-04-17T05:34:58.013Z,9.95
2023-04-17T05:37:24.682Z,9.96
2023-04-17T05:39:51.278Z,9.92
2023-04-17T05:42:17.889Z,9.90
2023-04-17T05:44:44.463Z,9.92
2023-04-17T05:47:11.001Z,10.01
2023-04-17T05:49:37.530Z,10.07
2023-04-17T05:52:04.223Z,10.18
2023-04-17T05:54:30.770Z,10.36
2023-04-17T05:56:57.454Z,10.43
2023-04-17T05:59:23.993Z,10.46
2023-04-17T06:01:51.191Z,10.54
2023-04-17T06:04:18.661Z,10.63
2023-04-17T06:06:45.668Z,10.68
2023-04-17T06:09:12.506Z,10.68
2023-04-17T06:11:39.306Z,10.66
2023-04-17T06:14:05.942Z,10.70
2023-04-17T06:16:32.607Z,10.76
2023-04-17T06:18:59.332Z,10.78
2023-04-17T06:21:26.011Z,10.79
2023-04-17T06:23:52.623Z,10.81
2023-04-17T06:26:19.227Z,10.84
2023-04-17T06:28:45.785Z,10.91
2023-04-17T06:31:12.469Z,10.88
2023-04-17T06:33:39.223Z,10.94
2023-04-17T06:36:06.369Z,11.01
2023-04-17T06:38:33.132Z,11.13
2023-04-17T06:40:59.712Z,11.26
2023-04-17T06:43:26.298Z,11.36
2023-04-17T06:45:53.108Z,11.41
2023-04-17T06:48:19.693Z,11.45
2023-04-17T06:50:46.248Z,11.50
2023-04-17T06:53:12.843Z,11.58
2023-04-17T06:55:39.410Z,11.64
2023-04-17T06:58:07.863Z,11.64
2023-04-17T07:00:34.472Z,11.74
2023-04-17T07:03:01.828Z,11.85
2023-04-17T07:05:28.625Z,11.91
2023-04-17T07:07:55.561Z,11.97
2023-04-17T07:10:22.098Z,12.05
2023-04-17T07:12:48.718Z,12.13
2023-04-17T07:15:16.352Z,12.14
2023-04-17T07:17:43.033Z,12.17
2023-04-17T07:20:10.158Z,12.18
2023-04-17T07:22:36.918Z,12.34
2023-04-17T07:25:04.603Z,12.48
2023-04-17T07:27:31.260Z,12.49
2023-04-17T07:29:57.857Z,12.48
2023-04-17T07:32:24.795Z,12.44
2023-04-17T07:34:51.512Z,12.47
2023-04-17T07:37:18.133Z,12.56
2023-04-17T07:39:45.421Z,12.52
2023-04-17T07:42:12.018Z,12.36
2023-04-17T07:44:39.121Z,12.31
2023-04-17T07:47:05.962Z,12.26
2023-04-17T07:49:32.788Z,12.20
2023-04-17T07:51:59.810Z,12.14
2023-04-17T07:54:26.505Z,12.19
2023-04-17T07:56:53.038Z,12.09
2023-04-17T07:59:19.572Z,12.12
2023-04-17T08:01:46.180Z,12.19
2023-04-17T08:04:13.364Z,12.23
2023-04-17T08:06:40.527Z,12.26
2023-04-17T08:09:07.177Z,12.29
2023-04-17T08:11:42.744Z,12.28
2023-04-17T08:14:17.504Z,12.35
2023-04-17T08:16:44.069Z,12.38
2023-04-17T08:19:11.007Z,12.29
2023-04-17T08:21:37.721Z,12.30
2023-04-17T08:24:04.560Z,12.14
2023-04-17T08:26:31.575Z,12.05
2023-04-17T08:29:01.608Z,11.91
2023-04-17T08:31:28.936Z,11.94
2023-04-17T08:34:06.180Z,12.00
2023-04-17T08:36:40.322Z,12.01
2023-04-17T08:39:07.023Z,12.13
2023-04-17T08:41:39.512Z,12.29
2023-04-17T08:44:06.272Z,12.41
2023-04-17T08:46:34.702Z,12.45
2023-04-17T08:49:02.977Z,12.52
2023-04-17T08:51:29.541Z,12.69
2023-04-17T08:53:56.191Z,12.87
2023-04-17T08:56:22.867Z,13.12
2023-04-17T08:58:49.460Z,13.30
2023-04-17T09:01:16.723Z,13.32
2023-04-17T09:03:44.127Z,13.24
2023-04-17T09:06:11.360Z,13.24
2023-04-17T09:08:38.491Z,13.40
2023-04-17T09:11:05.482Z,13.55
2023-04-17T09:13:38.914Z,13.75
2023-04-17T09:16:06.923Z,13.90
2023-04-17T09:18:34.628Z,13.96
2023-04-17T09:21:01.617Z,13.99
2023-04-17T09:23:29.802Z,14.09
2023-04-17T09:26:06.863Z,14.23
2023-04-17T09:28:39.152Z,14.51
2023-04-17T09:31:07.163Z,14.60
2023-04-17T09:33:33.850Z,14.58
2023-04-17T09:36:21.480Z,14.76
2023-04-17T09:38:48.755Z,14.78
2023-04-17T09:41:28.044Z,14.94
2023-04-17T09:43:55.793Z,14.84
2023-04-17T09:46:32.417Z,14.76
2023-04-17T09:49:05.006Z,14.69
2023-04-17T09:51:32.022Z,14.59
2023-04-17T09:53:59.139Z,14.71
2023-04-17T09:56:28.062Z,14.96
2023-04-17T09:58:54.665Z,15.32
2023-04-17T10:01:21.698Z,15.49
2023-04-17T10:03:48.796Z,15.17
2023-04-17T10:06:16.357Z,15.19
2023-04-17T10:08:43.203Z,15.20
2023-04-17T10:11:09.876Z,15.22
2023-04-17T10:13:38.676Z,15.11
2023-04-17T10:16:06.046Z,14.81
2023-04-17T10:18:32.979Z,14.83
2023-04-17T10:21:19.118Z,14.85
2023-04-17T10:23:45.887Z,14.93
2023-04-17T10:26:24.965Z,15.08
2023-04-17T10:28:53.166Z,15.19
2023-04-17T10:31:20.776Z,15.19
2023-04-17T10:33:51.549Z,14.99
2023-04-17T10:36:36.693Z,14.86
2023-04-17T10:39:18.580Z,14.80
2023-04-17T10:42:03.777Z,14.68
2023-04-17T10:44:39.931Z,14.66
2023-04-17T10:47:15.908Z,14.68
2023-04-17T10:49:49.853Z,14.45
2023-04-17T10:52:42.113Z,14.51
2023-04-17T10:55:10.155Z,14.61
2023-04-17T10:57:55.788Z,14.73
2023-04-17T11:00:30.270Z,14.93
2023-04-17T11:02:56.959Z,14.99
2023-04-17T11:05:24.304Z,14.93
2023-04-17T11:07:51.616Z,14.88
2023-04-17T11:10:21.483Z,14.75
2023-04-17T11:12:48.549Z,14.85
2023-04-17T11:15:15.177Z,14.92
2023-04-17T11:17:46.855Z,15.04
2023-04-17T11:20:17.408Z,15.06
2023-04-17T11:22:44.845Z,14.75
2023-04-17T11:25:24.130Z,14.80
2023-04-17T11:27:51.221Z,14.76
2023-04-17T11:30:27.985Z,14.91
2023-04-17T11:32:54.839Z,15.02
2023-04-17T11:35:23.484Z,15.33
2023-04-17T11:38:09.016Z,15.63
2023-04-17T11:40:35.679Z,15.81
2023-04-17T11:43:08.211Z,15.76
2023-04-17T11:45:35.802Z,15.81
2023-04-17T11:48:02.826Z,16.11
2023-04-17T11:50:30.900Z,16.50
2023-04-17T11:53:00.883Z,16.38
2023-04-17T11:55:31.530Z,16.22
2023-04-17T11:57:58.783Z,16.19
2023-04-17T12:00:29.775Z,16.36
2023-04-17T12:02:57.757Z,16.59
2023-04-17T12:05:25.846Z,16.89
2023-04-17T12:08:01.569Z,17.22
2023-04-17T12:10:41.713Z,17.48
2023-04-17T12:13:09.429Z,17.75
2023-04-17T12:15:36.672Z,17.84
2023-04-17T12:18:06.299Z,17.87
2023-04-17T12:20:34.058Z,17.42
2023-04-17T12:23:00.920Z,17.15
2023-04-17T12:25:27.640Z,16.85
2023-04-17T12:27:56.071Z,16.42
2023-04-17T12:30:23.896Z,16.57
2023-04-17T12:32:52.197Z,17.04
2023-04-17T12:35:19.323Z,17.73
2023-04-17T12:37:48.692Z,17.98
2023-04-17T12:40:16.903Z,18.24
2023-04-17T12:42:49.182Z,18.94
2023-04-17T12:45:17.014Z,19.49
2023-04-17T12:47:44.210Z,19.82
2023-04-17T12:50:14.454Z,19.73
2023-04-17T12:52:41.520Z,19.52
2023-04-17T12:55:08.756Z,18.92
2023-04-17T12:57:36.678Z,18.84
2023-04-17T13:00:06.168Z,18.67
2023-04-17T13:02:33.198Z,18.57
2023-04-17T13:04:59.974Z,18.51
2023-04-17T13:07:26.811Z,17.98
2023-04-17T13:09:53.460Z,17.49
2023-04-17T13:12:20.038Z,17.41
2023-04-17T13:14:46.648Z,17.47
2023-04-17T13:17:15.221Z,17.43
2023-04-17T13:19:43.665Z,17.21
2023-04-17T13:22:11.080Z,16.82
2023-04-17T13:24:37.895Z,16.44
2023-04-17T13:27:04.761Z,16.28
2023-04-17T13:29:31.475Z,16.25
2023-04-17T13:31:58.105Z,16.17
2023-04-17T13:34:24.714Z,16.27
2023-04-17T13:36:51.348Z,15.89
2023-04-17T13:39:18.103Z,15.78
2023-04-17T13:41:44.700Z,15.75
2023-04-17T13:44:11.458Z,15.73
2023-04-17T13:46:38.118Z,15.66
2023-04-17T13:49:04.772Z,15.56
2023-04-17T13:51:34.170Z,15.74
2023-04-17T13:54:00.761Z,15.80
2023-04-17T13:56:27.634Z,15.81
2023-04-17T13:58:54.572Z,15.67
2023-04-17T14:01:21.363Z,15.27
2023-04-17T14:03:48.341Z,15.17
2023-04-17T14:06:17.849Z,15.18
2023-04-17T14:08:45.819Z,15.30
2023-04-17T14:11:12.958Z,15.90
2023-04-17T14:13:39.566Z,16.72
2023-04-17T14:16:06.600Z,16.93
2023-04-17T14:18:33.365Z,16.71
2023-04-17T14:20:59.996Z,16.43
2023-04-17T14:23:26.673Z,16.05
2023-04-17T14:25:53.180Z,15.80
2023-04-17T14:28:21.068Z,15.18
2023-04-17T14:30:48.221Z,14.87
2023-04-17T14:33:14.835Z,14.69
2023-04-17T14:35:41.533Z,14.64
2023-04-17T14:38:08.454Z,14.60
2023-04-17T14:40:35.021Z,14.56
2023-04-17T14:43:01.719Z,14.30
2023-04-17T14:45:28.337Z,14.16
2023-04-17T14:47:55.034Z,13.89
2023-04-17T14:50:21.724Z,13.82
2023-04-17T14:52:48.464Z,13.76
2023-04-17T14:55:15.042Z,13.67
2023-04-17T14:57:41.690Z,13.58
2023-04-17T15:00:08.657Z,13.52
2023-04-17T15:02:38.829Z,13.33
2023-04-17T15:05:06.580Z,13.24
2023-04-17T15:07:33.173Z,13.24
2023-04-17T15:09:59.777Z,13.29
2023-04-17T15:12:26.550Z,13.33
2023-04-17T15:14:53.163Z,13.37
2023-04-17T15:17:19.852Z,13.38
2023-04-17T15:19:46.542Z,13.39
2023-04-17T15:22:13.128Z,13.36
2023-04-17T15:24:39.839Z,13.38
2023-04-17T15:27:06.470Z,13.42
2023-04-17T15:29:33.031Z,13.33
2023-04-17T15:32:00.762Z,13.20
2023-04-17T15:34:27.320Z,13.16
2023-04-17T15:36:53.890Z,13.01
2023-04-17T15:39:20.532Z,13.00
2023-04-17T15:41:48.035Z,12.94
2023-04-17T15:44:14.695Z,12.95
2023-04-17T15:46:41.670Z,12.95
2023-04-17T15:49:09.621Z,12.93
2023-04-17T15:51:36.272Z,12.89
2023-04-17T15:54:02.946Z,12.85
2023-04-17T15:56:29.577Z,12.82
2023-04-17T15:58:56.130Z,12.84
2023-04-17T16:01:22.782Z,12.82
2023-04-17T16:03:49.473Z,12.76
2023-04-17T16:06:16.204Z,12.73
2023-04-17T16:08:42.718Z,12.72
2023-04-17T16:11:10.904Z,12.74
2023-04-17T16:13:37.478Z,12.79
2023-04-17T16:16:04.291Z,12.80
2023-04-17T16:18:31.083Z,12.79
2023-04-17T16:20:57.704Z,12.83
2023-04-17T16:23:24.263Z,12.79
2023-04-17T16:25:51.338Z,12.75
2023-04-17T16:28:17.928Z,12.75
2023-04-17T16:30:44.489Z,12.73
2023-04-17T16:33:11.136Z,12.75
2023-04-17T16:35:37.714Z,12.69
2023-04-17T16:38:04.336Z,12.67
2023-04-17T16:40:31.021Z,12.66
2023-04-17T16:42:57.703Z,12.65
2023-04-17T16:45:24.276Z,12.70
2023-04-17T16:47:51.101Z,12.71
2023-04-17T16:50:17.976Z,12.67
2023-04-17T16:52:44.584Z,12.56
2023-04-17T16:55:11.306Z,12.50
2023-04-17T16:57:40.082Z,12.48
2023-04-17T17:00:07.749Z,12.48
2023-04-17T17:02:34.472Z,12.38
2023-04-17T17:05:01.280Z,12.39
2023-04-17T17:07:27.975Z,12.40
2023-04-17T17:09:54.585Z,12.42
2023-04-17T17:12:21.186Z,12.46
2023-04-17T17:14:47.899Z,12.51
2023-04-17T17:17:14.460Z,12.56
2023-04-17T17:19:41.132Z,12.55
2023-04-17T17:22:07.727Z,12.56
2023-04-17T17:24:34.519Z,12.53
2023-04-17T17:27:01.672Z,12.52
2023-04-17T17:29:28.366Z,12.61
2023-04-17T17:31:55.004Z,12.65
2023-04-17T17:34:26.560Z,12.61
2023-04-17T17:36:53.755Z,12.57
2023-04-17T17:39:21.992Z,12.55
2023-04-17T17:41:49.029Z,12.56
2023-04-17T17:44:15.810Z,12.54
2023-04-17T17:46:42.566Z,12.51
2023-04-17T17:49:09.216Z,12.57
2023-04-17T17:51:35.802Z,12.57
2023-04-17T17:54:02.490Z,12.56
2023-04-17T17:56:29.105Z,12.57
2023-04-17T17:58:55.767Z,12.54
2023-04-17T18:01:24.822Z,12.51
2023-04-17T18:03:51.892Z,12.43
2023-04-17T18:06:18.552Z,12.39
2023-04-17T18:08:45.191Z,12.39
2023-04-17T18:11:13.736Z,12.43
2023-04-17T18:13:40.345Z,12.45
2023-04-17T18:16:07.143Z,12.45
2023-04-17T18:18:33.840Z,12.46
2023-04-17T18:21:00.528Z,12.44
2023-04-17T18:23:27.186Z,12.40
2023-04-17T18:26:00.457Z,12.33
2023-04-17T18:28:27.100Z,12.30
2023-04-17T18:30:53.797Z,12.28
2023-04-17T18:33:20.690Z,12.27
2023-04-17T18:35:47.337Z,12.27
2023-04-17T18:38:14.816Z,12.29
2023-04-17T18:40:41.412Z,12.45
2023-04-17T18:43:10.052Z,12.61
2023-04-17T18:45:36.981Z,12.72
2023-04-17T18:48:03.791Z,12.82
2023-04-17T18:50:30.601Z,12.83
2023-04-17T18:52:57.277Z,12.85
2023-04-17T18:55:24.054Z,12.86
2023-04-17T18:57:50.711Z,12.79
2023-04-17T19:00:17.338Z,12.71
2023-04-17T19:02:44.077Z,12.63
2023-04-17T19:05:10.718Z,12.61
2023-04-17T19:07:37.513Z,12.61
2023-04-17T19:10:04.482Z,12.67
2023-04-17T19:12:31.176Z,12.71
2023-04-17T19:14:57.720Z,12.66
2023-04-17T19:17:25.600Z,12.62
2023-04-17T19:19:52.284Z,12.63
2023-04-17T19:22:18.935Z,12.62
2023-04-17T19:24:49.748Z,12.65
2023-04-17T19:27:16.837Z,12.58
2023-04-17T19:29:43.451Z,12.57
2023-04-17T19:32:10.689Z,12.65
2023-04-17T19:34:37.267Z,12.56
2023-04-17T19:37:03.939Z,12.38
2023-04-17T19:39:30.589Z,12.24
2023-04-17T19:41:57.205Z,12.13
2023-04-17T19:44:24.995Z,12.02
2023-04-17T19:46:52.582Z,11.94
2023-04-17T19:49:19.205Z,11.82
2023-04-17T19:51:46.110Z,11.77
2023-04-17T19:54:12.697Z,11.94
2023-04-17T19:56:39.543Z,12.08
2023-04-17T19:59:06.243Z,12.11
2023-04-17T20:01:32.986Z,11.93
2023-04-17T20:04:00.035Z,11.86
2023-04-17T20:06:26.836Z,11.85
2023-04-17T20:08:53.854Z,11.76
2023-04-17T20:11:20.626Z,11.68
2023-04-17T20:13:47.166Z,11.61
2023-04-17T20:16:13.796Z,11.50
2023-04-17T20:18:41.700Z,11.43
2023-04-17T20:21:08.268Z,11.38
2023-04-17T20:23:34.880Z,11.29
2023-04-17T20:26:03.311Z,11.23
2023-04-17T20:28:30.086Z,11.19
2023-04-17T20:30:56.753Z,11.13
2023-04-17T20:33:23.422Z,11.07
2023-04-17T20:35:50.048Z,11.02
2023-04-17T20:38:16.639Z,10.96
2023-04-17T20:40:43.290Z,10.95
2023-04-17T20:43:09.922Z,10.95
2023-04-17T20:45:36.555Z,11.03
2023-04-17T20:48:03.342Z,11.21
2023-04-17T20:50:30.010Z,11.34
2023-04-17T20:52:56.648Z,11.42
2023-04-17T20:55:24.255Z,11.49
2023-04-17T20:57:51.018Z,11.58
2023-04-17T21:00:18.099Z,11.65
2023-04-17T21:02:44.887Z,11.75
2023-04-17T21:05:11.471Z,11.85
2023-04-17T21:07:38.075Z,11.83
2023-04-17T21:10:05.245Z,11.80
2023-04-17T21:12:35.087Z,11.81
2023-04-17T21:15:01.890Z,11.89
2023-04-17T21:17:30.213Z,11.97
2023-04-17T21:19:56.845Z,11.95
2023-04-17T21:22:23.397Z,11.86
2023-04-17T21:24:49.999Z,11.74
2023-04-17T21:27:16.767Z,11.68
2023-04-17T21:29:43.386Z,11.67
2023-04-17T21:32:10.408Z,11.68
2023-04-17T21:34:37.011Z,11.74
2023-04-17T21:37:04.885Z,11.70
2023-04-17T21:39:33.274Z,11.63
2023-04-17T21:42:00.252Z,11.56
2023-04-17T21:44:26.800Z,11.49
2023-04-17T21:46:53.427Z,11.46
2023-04-17T21:49:20.773Z,11.46
2023-04-17T21:51:47.329Z,11.48
2023-04-17T21:54:14.290Z,11.47
2023-04-17T21:56:41.219Z,11.51
2023-04-17T21:59:07.760Z,11.61
2023-04-17T22:01:34.533Z,11.67
2023-04-17T22:04:01.368Z,11.68
2023-04-17T22:06:27.986Z,11.61
2023-04-17T22:08:54.617Z,11.53
2023-04-17T22:11:21.302Z,11.44
2023-04-17T22:13:47.808Z,11.34
2023-04-17T22:16:14.431Z,11.22
2023-04-17T22:18:41.071Z,11.12
2023-04-17T22:21:07.660Z,11.04
2023-04-17T22:23:34.252Z,10.98
2023-04-17T22:26:00.813Z,10.91
2023-04-17T22:28:31.052Z,10.85
2023-04-17T22:30:58.238Z,10.77
2023-04-17T22:33:24.900Z,10.69
2023-04-17T22:35:51.585Z,10.61
2023-04-17T22:38:19.352Z,10.55
2023-04-17T22:40:45.923Z,10.52
2023-04-17T22:43:12.497Z,10.49
2023-04-17T22:45:39.054Z,10.47
2023-04-17T22:48:05.874Z,10.45
2023-04-17T22:50:32.453Z,10.46
2023-04-17T22:52:59.047Z,10.46
2023-04-17T22:55:25.630Z,10.47
2023-04-17T22:57:52.223Z,10.48
2023-04-17T23:00:20.195Z,10.48
2023-04-17T23:02:47.479Z,10.45
2023-04-17T23:05:14.423Z,10.40
2023-04-17T23:07:41.251Z,10.36
2023-04-17T23:10:08.101Z,10.35
2023-04-17T23:12:34.829Z,10.39
2023-04-17T23:15:01.389Z,10.36
2023-04-17T23:17:28.167Z,10.34
2023-04-17T23:19:54.747Z,10.33
2023-04-17T23:22:21.351Z,10.40
2023-04-17T23:24:47.919Z,10.49
2023-04-17T23:27:14.459Z,10.64
2023-04-17T23:29:40.964Z,10.74
2023-04-17T23:32:08.014Z,10.88
2023-04-17T23:34:34.736Z,11.10
2023-04-17T23:37:02.719Z,11.26
2023-04-17T23:39:29.467Z,11.43
2023-04-17T23:41:55.993Z,11.48
2023-04-17T23:44:22.554Z,11.46
2023-04-17T23:46:49.240Z,11.38
2023-04-17T23:49:15.802Z,11.24
2023-04-17T23:51:42.342Z,11.13
2023-04-17T23:54:09.003Z,11.03
2023-04-17T23:56:35.798Z,11.02
2023-04-17T23:59:02.398Z,11.14
